createdAt,value
2018-07-25T00:00:29.793Z,0.00
2018-07-25T00:01:29.459Z,0.00
2018-07-25T00:02:29.498Z,0.00
2018-07-25T00:03:29.509Z,0.00
2018-07-25T00:04:29.598Z,0.00
2018-07-25T00:05:29.333Z,0.00
2018-07-25T00:06:29.618Z,0.00
2018-07-25T00:07:29.390Z,0.00
2018-07-25T00:08:29.429Z,0.00
2018-07-25T00:09:29.403Z,0.00
2018-07-25T00:11:32.100Z,0.00
2018-07-25T00:12:29.441Z,0.00
2018-07-25T00:13:29.341Z,0.00
2018-07-25T00:14:29.424Z,0.00
2018-07-25T00:15:29.446Z,0.00
2018-07-25T00:16:29.277Z,0.00
2018-07-25T00:17:29.363Z,0.00
2018-07-25T00:18:29.600Z,0.00
2018-07-25T00:19:29.195Z,0.00
2018-07-25T00:20:29.289Z,0.00
2018-07-25T00:21:29.182Z,0.00
2018-07-25T00:22:29.256Z,0.00
2018-07-25T00:23:29.288Z,0.00
2018-07-25T00:25:31.589Z,0.00
2018-07-25T00:27:29.119Z,0.00
2018-07-25T00:30:29.084Z,0.00
2018-07-25T00:31:29.467Z,0.00
2018-07-25T00:32:29.155Z,0.00
2018-07-25T00:33:30.016Z,0.00
2018-07-25T00:35:29.036Z,0.00
2018-07-25T00:36:29.028Z,0.00
2018-07-25T00:38:29.475Z,0.00
2018-07-25T00:39:29.744Z,0.00
2018-07-25T00:40:29.455Z,0.00
2018-07-25T00:41:29.016Z,0.00
2018-07-25T00:42:28.961Z,0.00
2018-07-25T00:43:29.344Z,0.00
2018-07-25T00:44:29.034Z,0.00
2018-07-25T00:45:29.482Z,0.00
2018-07-25T00:46:28.949Z,0.00
2018-07-25T00:47:28.913Z,0.00
2018-07-25T00:48:28.892Z,0.00
2018-07-25T00:49:28.955Z,0.00
2018-07-25T00:50:29.993Z,0.00
2018-07-25T00:51:28.970Z,0.00
2018-07-25T00:52:29.532Z,0.00
2018-07-25T00:53:29.001Z,0.00
2018-07-25T00:54:29.500Z,0.00
2018-07-25T00:55:29.559Z,0.00
2018-07-25T00:56:28.815Z,0.00
2018-07-25T00:57:29.404Z,0.00
2018-07-25T00:58:28.922Z,0.00
2018-07-25T00:59:28.786Z,0.00
2018-07-25T01:00:28.906Z,0.00
2018-07-25T01:02:29.071Z,0.00
2018-07-25T01:03:28.851Z,0.00
2018-07-25T01:04:29.137Z,0.00
2018-07-25T01:05:28.814Z,0.00
2018-07-25T01:06:28.788Z,0.00
2018-07-25T01:07:28.765Z,0.00
2018-07-25T01:08:28.837Z,0.00
2018-07-25T01:09:28.884Z,0.00
2018-07-25T01:10:28.685Z,0.00
2018-07-25T01:11:29.029Z,0.00
2018-07-25T01:12:29.040Z,0.00
2018-07-25T01:13:28.907Z,0.00
2018-07-25T01:14:28.673Z,0.00
2018-07-25T01:15:31.209Z,0.00
2018-07-25T01:16:28.692Z,0.00
2018-07-25T01:17:28.597Z,0.00
2018-07-25T01:18:28.989Z,0.00
2018-07-25T01:20:28.580Z,0.00
2018-07-25T01:22:28.665Z,0.00
2018-07-25T01:23:28.640Z,0.00
2018-07-25T01:24:29.336Z,0.00
2018-07-25T01:25:28.883Z,0.00
2018-07-25T01:26:28.573Z,0.00
2018-07-25T01:27:28.505Z,0.00
2018-07-25T01:29:29.106Z,0.00
2018-07-25T01:30:28.725Z,0.00
2018-07-25T01:31:28.741Z,0.00
2018-07-25T01:32:28.969Z,0.00
2018-07-25T01:33:28.609Z,0.00
2018-07-25T01:34:28.997Z,0.00
2018-07-25T01:35:28.685Z,0.00
2018-07-25T01:36:28.968Z,0.00
2018-07-25T01:37:29.104Z,0.00
2018-07-25T01:38:28.835Z,0.00
2018-07-25T01:40:28.684Z,0.00
2018-07-25T01:41:28.561Z,0.00
2018-07-25T01:42:28.602Z,0.00
2018-07-25T01:43:28.896Z,0.00
2018-07-25T01:44:29.172Z,0.00
2018-07-25T01:45:28.972Z,0.00
2018-07-25T01:47:28.558Z,0.00
2018-07-25T01:49:28.466Z,0.00
2018-07-25T01:50:29.264Z,0.00
2018-07-25T01:51:28.500Z,0.00
2018-07-25T01:53:28.406Z,0.00
2018-07-25T01:54:28.427Z,0.00
2018-07-25T01:55:28.425Z,0.00
2018-07-25T01:56:28.732Z,0.00
2018-07-25T01:57:28.331Z,0.00
2018-07-25T01:58:28.356Z,0.00
2018-07-25T01:59:28.403Z,0.00
2018-07-25T02:00:28.449Z,0.00
2018-07-25T02:01:28.280Z,0.00
2018-07-25T02:02:28.641Z,0.00
2018-07-25T02:04:28.288Z,0.00
2018-07-25T02:05:28.903Z,0.00
2018-07-25T02:06:28.241Z,0.00
2018-07-25T02:07:28.197Z,0.00
2018-07-25T02:08:28.729Z,0.00
2018-07-25T02:09:28.232Z,0.00
2018-07-25T02:10:28.372Z,0.00
2018-07-25T02:12:28.220Z,0.00
2018-07-25T02:13:28.232Z,0.00
2018-07-25T02:14:28.594Z,0.00
2018-07-25T02:15:28.196Z,0.00
2018-07-25T02:16:28.179Z,0.00
2018-07-25T02:17:28.073Z,0.00
2018-07-25T02:18:28.111Z,0.00
2018-07-25T02:19:28.275Z,0.00
2018-07-25T02:20:28.198Z,0.00
2018-07-25T02:22:28.096Z,0.00
2018-07-25T02:23:28.093Z,0.00
2018-07-25T02:24:28.048Z,0.00
2018-07-25T02:25:28.061Z,0.00
2018-07-25T02:26:28.127Z,0.00
2018-07-25T02:27:27.996Z,0.00
2018-07-25T02:30:29.156Z,0.00
2018-07-25T02:31:28.044Z,0.00
2018-07-25T02:32:28.135Z,0.00
2018-07-25T02:33:29.003Z,0.00
2018-07-25T02:34:28.213Z,0.00
2018-07-25T02:35:28.039Z,0.00
2018-07-25T02:36:28.022Z,0.00
2018-07-25T02:37:28.444Z,0.00
2018-07-25T02:38:27.899Z,0.00
2018-07-25T02:40:27.827Z,0.00
2018-07-25T02:41:28.357Z,0.00
2018-07-25T02:42:27.915Z,0.00
2018-07-25T02:43:28.444Z,0.00
2018-07-25T02:44:28.741Z,0.00
2018-07-25T02:46:27.770Z,0.00
2018-07-25T02:47:27.709Z,0.00
2018-07-25T02:48:27.653Z,0.00
2018-07-25T02:49:27.649Z,0.00
2018-07-25T02:50:27.748Z,0.00
2018-07-25T02:51:28.026Z,0.00
2018-07-25T02:52:27.607Z,0.00
2018-07-25T02:53:27.604Z,0.00
2018-07-25T02:55:27.756Z,0.00
2018-07-25T02:56:27.724Z,0.00
2018-07-25T02:57:27.651Z,0.00
2018-07-25T02:58:27.942Z,0.00
2018-07-25T02:59:27.533Z,0.00
2018-07-25T03:00:27.784Z,0.00
2018-07-25T03:02:27.762Z,0.00
2018-07-25T03:03:27.755Z,0.00
2018-07-25T03:04:28.121Z,0.00
2018-07-25T03:05:28.062Z,0.00
2018-07-25T03:06:27.672Z,0.00
2018-07-25T03:07:27.672Z,0.00
2018-07-25T03:08:27.699Z,0.00
2018-07-25T03:09:27.793Z,0.00
2018-07-25T03:10:27.623Z,0.00
2018-07-25T03:11:28.257Z,0.00
2018-07-25T03:13:27.555Z,0.00
2018-07-25T03:14:27.568Z,0.00
2018-07-25T03:15:27.554Z,0.00
2018-07-25T03:16:27.927Z,0.00
2018-07-25T03:17:27.809Z,0.00
2018-07-25T03:18:27.479Z,0.00
2018-07-25T03:19:27.421Z,0.00
2018-07-25T03:20:27.455Z,0.00
2018-07-25T03:21:27.457Z,5.63
2018-07-25T03:22:27.922Z,5.63
2018-07-25T03:23:27.771Z,5.63
2018-07-25T03:24:27.266Z,5.63
2018-07-25T03:25:27.284Z,5.63
2018-07-25T03:26:27.243Z,5.63
2018-07-25T03:27:27.419Z,5.63
2018-07-25T03:28:27.355Z,5.63
2018-07-25T03:29:27.809Z,5.63
2018-07-25T03:30:27.355Z,5.63
2018-07-25T03:31:27.341Z,5.63
2018-07-25T03:32:27.879Z,5.63
2018-07-25T03:34:28.361Z,11.25
2018-07-25T03:35:27.249Z,11.25
2018-07-25T03:36:27.494Z,11.25
2018-07-25T03:37:27.240Z,11.25
2018-07-25T03:39:27.485Z,11.25
2018-07-25T03:40:27.337Z,11.25
2018-07-25T03:41:27.813Z,11.25
2018-07-25T03:42:27.883Z,11.25
2018-07-25T03:43:27.086Z,11.25
2018-07-25T03:44:27.110Z,16.88
2018-07-25T03:45:27.051Z,16.88
2018-07-25T03:46:27.202Z,16.88
2018-07-25T03:47:27.366Z,16.88
2018-07-25T03:49:27.129Z,16.88
2018-07-25T03:50:27.136Z,16.88
2018-07-25T03:51:27.090Z,16.88
2018-07-25T03:52:27.555Z,22.50
2018-07-25T03:53:27.653Z,22.50
2018-07-25T03:54:27.229Z,22.50
2018-07-25T03:55:27.473Z,22.50
2018-07-25T03:56:27.048Z,22.50
2018-07-25T03:57:27.058Z,22.50
2018-07-25T03:58:26.901Z,28.13
2018-07-25T03:59:27.104Z,28.13
2018-07-25T04:00:26.994Z,28.13
2018-07-25T04:01:26.879Z,28.13
2018-07-25T04:02:27.269Z,28.13
2018-07-25T04:03:26.941Z,33.75
2018-07-25T04:05:27.238Z,33.75
2018-07-25T04:07:26.908Z,39.38
2018-07-25T04:08:26.817Z,39.38
2018-07-25T04:09:27.101Z,39.38
2018-07-25T04:10:27.508Z,39.38
2018-07-25T04:11:26.855Z,39.38
2018-07-25T04:12:27.498Z,39.38
2018-07-25T04:13:26.937Z,45.00
2018-07-25T04:14:27.209Z,45.00
2018-07-25T04:15:27.238Z,45.00
2018-07-25T04:16:26.840Z,45.00
2018-07-25T04:17:26.897Z,45.00
2018-07-25T04:18:27.571Z,45.00
2018-07-25T04:19:28.274Z,45.00
2018-07-25T04:20:26.789Z,45.00
2018-07-25T04:21:26.658Z,50.63
2018-07-25T04:22:27.118Z,50.63
2018-07-25T04:23:27.042Z,50.63
2018-07-25T04:24:26.777Z,50.63
2018-07-25T04:25:26.801Z,50.63
2018-07-25T04:26:27.305Z,56.25
2018-07-25T04:28:27.393Z,56.25
2018-07-25T04:30:26.765Z,61.88
2018-07-25T04:31:26.723Z,61.88
2018-07-25T04:32:26.637Z,61.88
2018-07-25T04:33:26.658Z,67.50
2018-07-25T04:34:26.620Z,67.50
2018-07-25T04:35:26.995Z,67.50
2018-07-25T04:36:26.710Z,73.13
2018-07-25T04:37:26.667Z,73.13
2018-07-25T04:38:27.005Z,73.13
2018-07-25T04:39:26.667Z,78.75
2018-07-25T04:40:26.620Z,78.75
2018-07-25T04:41:26.855Z,78.75
2018-07-25T04:42:26.651Z,78.75
2018-07-25T04:43:26.701Z,78.75
2018-07-25T04:44:26.663Z,84.38
2018-07-25T04:45:28.610Z,84.38
2018-07-25T04:46:27.136Z,84.38
2018-07-25T04:47:26.930Z,84.38
2018-07-25T04:49:26.509Z,84.38
2018-07-25T04:50:26.493Z,90.00
2018-07-25T04:51:26.516Z,90.00
2018-07-25T04:52:26.742Z,90.00
2018-07-25T04:53:26.779Z,90.00
2018-07-25T04:54:26.948Z,90.00
2018-07-25T04:55:26.510Z,90.00
2018-07-25T04:56:26.454Z,95.63
2018-07-25T04:57:26.955Z,95.63
2018-07-25T04:58:26.462Z,101.25
2018-07-25T05:01:26.921Z,101.25
2018-07-25T05:02:26.897Z,101.25
2018-07-25T05:03:26.349Z,101.25
2018-07-25T05:04:26.306Z,106.88
2018-07-25T05:05:26.677Z,106.88
2018-07-25T05:06:26.312Z,106.88
2018-07-25T05:07:26.311Z,112.50
2018-07-25T05:08:26.207Z,112.50
2018-07-25T05:09:26.314Z,112.50
2018-07-25T05:10:26.483Z,112.50
2018-07-25T05:12:26.631Z,112.50
2018-07-25T05:13:26.348Z,112.50
2018-07-25T05:14:26.406Z,112.50
2018-07-25T05:15:26.264Z,118.13
2018-07-25T05:16:26.201Z,118.13
2018-07-25T05:17:26.239Z,123.75
2018-07-25T05:18:26.812Z,123.75
2018-07-25T05:19:26.194Z,123.75
2018-07-25T05:20:26.236Z,123.75
2018-07-25T05:21:26.206Z,123.75
2018-07-25T05:23:26.113Z,118.13
2018-07-25T05:25:26.525Z,123.75
2018-07-25T05:26:26.234Z,123.75
2018-07-25T05:27:26.082Z,123.75
2018-07-25T05:28:26.060Z,123.75
2018-07-25T05:29:26.062Z,123.75
2018-07-25T05:30:26.675Z,123.75
2018-07-25T05:31:26.027Z,123.75
2018-07-25T05:32:26.491Z,123.75
2018-07-25T05:33:26.085Z,129.38
2018-07-25T05:34:26.008Z,135.00
2018-07-25T05:35:26.000Z,140.63
2018-07-25T05:36:26.013Z,140.63
2018-07-25T05:37:25.880Z,146.25
2018-07-25T05:38:26.367Z,146.25
2018-07-25T05:39:26.140Z,146.25
2018-07-25T05:40:26.081Z,151.88
2018-07-25T05:41:25.937Z,151.88
2018-07-25T05:42:25.922Z,151.88
2018-07-25T05:43:27.716Z,157.50
2018-07-25T05:44:26.022Z,157.50
2018-07-25T05:45:26.249Z,163.13
2018-07-25T05:46:25.901Z,163.13
2018-07-25T05:47:25.778Z,163.13
2018-07-25T05:48:25.848Z,163.13
2018-07-25T05:49:26.016Z,163.13
2018-07-25T05:50:25.848Z,168.75
2018-07-25T05:51:25.965Z,174.38
2018-07-25T05:52:26.034Z,180.00
2018-07-25T05:53:25.716Z,180.00
2018-07-25T05:54:25.712Z,185.63
2018-07-25T05:55:25.704Z,185.63
2018-07-25T05:56:26.348Z,191.25
2018-07-25T05:57:25.778Z,191.25
2018-07-25T05:58:25.675Z,191.25
2018-07-25T05:59:25.964Z,196.88
2018-07-25T06:00:25.653Z,196.88
2018-07-25T06:01:25.639Z,196.88
2018-07-25T06:02:26.285Z,191.25
2018-07-25T06:03:25.748Z,191.25
2018-07-25T06:04:25.909Z,191.25
2018-07-25T06:05:25.912Z,191.25
2018-07-25T06:06:25.596Z,191.25
2018-07-25T06:07:38.354Z,196.88
2018-07-25T06:08:27.098Z,196.88
2018-07-25T06:09:26.218Z,196.88
2018-07-25T06:10:25.564Z,202.50
2018-07-25T06:11:26.055Z,202.50
2018-07-25T06:12:25.548Z,202.50
2018-07-25T06:13:25.532Z,208.13
2018-07-25T06:14:26.233Z,208.13
2018-07-25T06:15:25.559Z,213.75
2018-07-25T06:16:25.518Z,213.75
2018-07-25T06:17:25.791Z,225.00
2018-07-25T06:18:25.482Z,230.63
2018-07-25T06:19:25.481Z,230.63
2018-07-25T06:20:25.652Z,230.63
2018-07-25T06:21:25.512Z,236.25
2018-07-25T06:22:25.555Z,241.88
2018-07-25T06:23:25.744Z,241.88
2018-07-25T06:25:25.421Z,241.88
2018-07-25T06:26:25.518Z,241.88
2018-07-25T06:27:25.500Z,247.50
2018-07-25T06:28:25.527Z,247.50
2018-07-25T06:29:25.382Z,247.50
2018-07-25T06:30:25.754Z,247.50
2018-07-25T06:31:25.401Z,253.13
2018-07-25T06:32:25.363Z,247.50
2018-07-25T06:33:25.461Z,247.50
2018-07-25T06:34:26.048Z,247.50
2018-07-25T06:35:25.341Z,247.50
2018-07-25T06:36:25.625Z,241.88
2018-07-25T06:37:25.320Z,241.88
2018-07-25T06:38:25.519Z,241.88
2018-07-25T06:39:25.510Z,241.88
2018-07-25T06:40:25.541Z,241.88
2018-07-25T06:41:25.279Z,241.88
2018-07-25T06:42:25.580Z,236.25
2018-07-25T06:43:25.358Z,236.25
2018-07-25T06:44:25.255Z,230.63
2018-07-25T06:45:25.905Z,225.00
2018-07-25T06:46:25.499Z,219.38
2018-07-25T06:47:28.271Z,213.75
2018-07-25T06:48:28.558Z,208.13
2018-07-25T06:49:25.215Z,208.13
2018-07-25T06:50:26.627Z,208.13
2018-07-25T06:51:25.405Z,208.13
2018-07-25T06:52:25.190Z,202.50
2018-07-25T06:53:25.182Z,202.50
2018-07-25T06:54:25.692Z,196.88
2018-07-25T06:55:25.773Z,196.88
2018-07-25T06:56:25.164Z,202.50
2018-07-25T06:57:25.295Z,202.50
2018-07-25T06:58:44.448Z,202.50
2018-07-25T06:59:25.251Z,196.88
2018-07-25T07:00:25.437Z,191.25
2018-07-25T07:01:25.725Z,185.63
2018-07-25T07:02:26.535Z,185.63
2018-07-25T07:03:25.812Z,174.38
2018-07-25T07:04:25.352Z,174.38
2018-07-25T07:05:25.098Z,174.38
2018-07-25T07:06:25.076Z,180.00
2018-07-25T07:07:25.072Z,191.25
2018-07-25T07:08:25.746Z,196.88
2018-07-25T07:09:25.262Z,202.50
2018-07-25T07:10:25.153Z,208.13
2018-07-25T07:11:25.144Z,219.38
2018-07-25T07:12:25.438Z,219.38
2018-07-25T07:13:25.033Z,225.00
2018-07-25T07:14:25.026Z,230.63
2018-07-25T07:16:25.099Z,253.13
2018-07-25T07:17:25.152Z,264.38
2018-07-25T07:18:25.600Z,275.63
2018-07-25T07:19:24.976Z,292.50
2018-07-25T07:20:25.581Z,315.00
2018-07-25T07:21:28.009Z,331.88
2018-07-25T07:22:25.261Z,337.50
2018-07-25T07:23:25.051Z,354.38
2018-07-25T07:24:25.292Z,360.00
2018-07-25T07:25:24.937Z,360.00
2018-07-25T07:26:24.921Z,354.38
2018-07-25T07:27:24.933Z,348.75
2018-07-25T07:28:24.960Z,337.50
2018-07-25T07:29:25.006Z,337.50
2018-07-25T07:30:25.191Z,326.25
2018-07-25T07:31:25.133Z,320.63
2018-07-25T07:32:24.879Z,315.00
2018-07-25T07:33:24.876Z,309.38
2018-07-25T07:34:24.975Z,309.38
2018-07-25T07:35:25.164Z,298.13
2018-07-25T07:36:25.157Z,292.50
2018-07-25T07:37:24.875Z,281.25
2018-07-25T07:38:24.840Z,264.38
2018-07-25T07:39:24.827Z,253.13
2018-07-25T07:40:24.876Z,241.88
2018-07-25T07:41:27.990Z,236.25
2018-07-25T07:42:25.122Z,225.00
2018-07-25T07:43:24.794Z,219.38
2018-07-25T07:46:24.904Z,253.13
2018-07-25T07:47:25.074Z,247.50
2018-07-25T07:48:28.346Z,241.88
2018-07-25T07:49:31.076Z,230.63
2018-07-25T07:50:24.947Z,219.38
2018-07-25T07:51:44.037Z,213.75
2018-07-25T07:52:25.012Z,208.13
2018-07-25T07:53:26.224Z,219.38
2018-07-25T07:54:25.268Z,241.88
2018-07-25T07:55:26.227Z,241.88
2018-07-25T07:56:25.005Z,247.50
2018-07-25T07:57:24.704Z,241.88
2018-07-25T07:58:24.697Z,258.75
2018-07-25T07:59:24.796Z,236.25
2018-07-25T08:00:24.685Z,236.25
2018-07-25T08:01:24.724Z,247.50
2018-07-25T08:02:24.764Z,281.25
2018-07-25T08:03:24.663Z,275.63
2018-07-25T08:04:24.658Z,281.25
2018-07-25T08:05:24.648Z,281.25
2018-07-25T08:06:26.357Z,281.25
2018-07-25T08:07:24.727Z,281.25
2018-07-25T08:08:24.989Z,281.25
2018-07-25T08:09:24.624Z,281.25
2018-07-25T08:10:24.620Z,281.25
2018-07-25T08:11:24.803Z,286.88
2018-07-25T08:12:25.508Z,286.88
2018-07-25T08:13:43.794Z,292.50
2018-07-25T08:14:25.298Z,298.13
2018-07-25T08:15:24.881Z,298.13
2018-07-25T08:16:24.573Z,303.75
2018-07-25T08:17:24.578Z,303.75
2018-07-25T08:18:24.573Z,303.75
2018-07-25T08:19:25.170Z,309.38
2018-07-25T08:21:26.066Z,303.75
2018-07-25T08:22:37.579Z,303.75
2018-07-25T08:23:24.530Z,309.38
2018-07-25T08:24:24.826Z,309.38
2018-07-25T08:25:50.270Z,309.38
2018-07-25T08:26:30.792Z,309.38
2018-07-25T08:28:24.605Z,315.00
2018-07-25T08:29:24.600Z,315.00
2018-07-25T08:30:24.852Z,326.25
2018-07-25T08:31:24.694Z,326.25
2018-07-25T08:32:24.492Z,337.50
2018-07-25T08:33:24.494Z,343.13
2018-07-25T08:34:24.582Z,343.13
2018-07-25T08:35:25.937Z,343.13
2018-07-25T08:36:24.774Z,348.75
2018-07-25T08:37:24.466Z,348.75
2018-07-25T08:38:24.466Z,348.75
2018-07-25T08:39:24.462Z,360.00
2018-07-25T08:40:24.552Z,360.00
2018-07-25T08:41:24.552Z,360.00
2018-07-25T08:42:24.998Z,365.63
2018-07-25T08:44:37.175Z,371.25
2018-07-25T08:45:27.468Z,376.88
2018-07-25T08:46:24.423Z,382.50
2018-07-25T08:47:25.128Z,388.13
2018-07-25T08:48:24.825Z,388.13
2018-07-25T08:49:30.686Z,382.50
2018-07-25T08:50:30.685Z,382.50
2018-07-25T08:51:24.423Z,382.50
2018-07-25T08:52:50.142Z,388.13
2018-07-25T08:53:24.608Z,388.13
2018-07-25T08:56:25.194Z,399.38
2018-07-25T08:57:24.990Z,405.00
2018-07-25T08:58:27.683Z,405.00
2018-07-25T08:59:37.949Z,410.63
2018-07-25T09:00:25.311Z,416.25
2018-07-25T09:01:24.991Z,416.25
2018-07-25T09:02:25.864Z,416.25
2018-07-25T09:08:27.474Z,478.13
2018-07-25T09:09:24.577Z,500.63
2018-07-25T09:10:24.897Z,528.75
2018-07-25T09:11:25.777Z,562.50
2018-07-25T09:12:27.391Z,590.63
2018-07-25T09:13:24.994Z,624.38
2018-07-25T09:14:25.403Z,613.13
2018-07-25T09:15:24.951Z,680.63
2018-07-25T09:16:24.344Z,708.75
2018-07-25T09:17:24.654Z,753.75
2018-07-25T09:18:24.592Z,967.50
2018-07-25T09:19:27.377Z,1906.88
2018-07-25T09:20:24.638Z,2356.88
2018-07-25T09:21:24.334Z,2677.50
2018-07-25T09:22:24.333Z,3414.38
2018-07-25T09:23:24.937Z,3695.63
2018-07-25T09:24:26.842Z,3774.38
2018-07-25T09:25:24.449Z,3870.00
2018-07-25T09:26:24.627Z,3819.38
2018-07-25T09:27:24.336Z,3825.00
2018-07-25T09:28:24.333Z,3931.88
2018-07-25T09:29:24.532Z,3920.63
2018-07-25T09:30:24.572Z,3931.88
2018-07-25T09:31:24.370Z,3864.38
2018-07-25T09:32:24.327Z,1828.13
2018-07-25T09:33:24.620Z,928.13
2018-07-25T09:34:24.593Z,607.50
2018-07-25T09:35:24.324Z,568.13
2018-07-25T09:36:25.122Z,551.25
2018-07-25T09:37:24.320Z,551.25
2018-07-25T09:38:24.522Z,551.25
2018-07-25T09:39:24.612Z,556.88
2018-07-25T09:41:24.933Z,556.88
2018-07-25T09:42:24.417Z,562.50
2018-07-25T09:43:25.017Z,556.88
2018-07-25T09:44:24.317Z,568.13
2018-07-25T09:45:25.217Z,635.63
2018-07-25T09:46:24.316Z,573.75
2018-07-25T09:47:30.587Z,573.75
2018-07-25T09:48:24.368Z,590.63
2018-07-25T09:49:24.620Z,596.25
2018-07-25T09:50:30.602Z,607.50
2018-07-25T09:51:24.618Z,613.13
2018-07-25T09:52:30.578Z,663.75
2018-07-25T09:53:24.311Z,736.88
2018-07-25T09:54:24.413Z,2317.50
2018-07-25T09:55:24.418Z,3290.63
2018-07-25T09:56:24.423Z,4134.38
2018-07-25T09:57:24.617Z,4123.13
2018-07-25T09:58:24.321Z,3993.75
2018-07-25T09:59:24.314Z,4061.25
2018-07-25T10:00:24.422Z,4246.88
2018-07-25T10:01:24.418Z,4410.00
2018-07-25T10:02:24.319Z,4387.50
2018-07-25T10:03:24.631Z,4213.13
2018-07-25T10:04:24.320Z,4010.63
2018-07-25T10:05:24.323Z,4230.00
2018-07-25T10:06:24.401Z,4393.13
2018-07-25T10:07:24.449Z,4145.63
2018-07-25T10:08:24.342Z,4010.63
2018-07-25T10:09:24.632Z,4061.25
2018-07-25T10:10:27.365Z,4033.13
2018-07-25T10:11:30.597Z,4072.50
2018-07-25T10:12:24.739Z,3971.25
2018-07-25T10:13:24.429Z,3836.25
2018-07-25T10:14:24.337Z,3886.88
2018-07-25T10:15:30.909Z,3481.88
2018-07-25T10:16:30.604Z,3448.13
2018-07-25T10:17:24.344Z,3853.13
2018-07-25T10:18:25.009Z,3954.38
2018-07-25T10:19:24.451Z,4005.00
2018-07-25T10:20:24.551Z,3920.63
2018-07-25T10:21:58.460Z,3830.63
2018-07-25T10:22:24.576Z,4027.50
2018-07-25T10:23:24.367Z,4117.50
2018-07-25T10:24:24.451Z,3982.50
2018-07-25T10:25:25.807Z,3948.75
2018-07-25T10:26:24.368Z,3881.25
2018-07-25T10:27:24.781Z,3763.13
2018-07-25T10:28:24.395Z,3504.38
2018-07-25T10:29:24.399Z,3802.50
2018-07-25T10:30:24.978Z,3954.38
2018-07-25T10:31:50.177Z,3948.75
2018-07-25T10:32:24.672Z,2964.38
2018-07-25T10:33:25.972Z,1490.63
2018-07-25T10:34:43.585Z,1074.38
2018-07-25T10:35:24.376Z,995.63
2018-07-25T10:36:24.403Z,961.88
2018-07-25T10:37:24.415Z,933.75
2018-07-25T10:38:24.492Z,939.38
2018-07-25T10:39:24.770Z,928.13
2018-07-25T10:40:24.608Z,922.50
2018-07-25T10:41:24.399Z,911.25
2018-07-25T10:42:24.454Z,900.00
2018-07-25T10:43:24.408Z,905.63
2018-07-25T10:44:24.409Z,905.63
2018-07-25T10:45:24.714Z,911.25
2018-07-25T10:46:24.515Z,916.88
2018-07-25T10:47:27.121Z,916.88
2018-07-25T10:48:24.417Z,922.50
2018-07-25T10:49:24.428Z,945.00
2018-07-25T10:50:24.425Z,956.25
2018-07-25T10:51:24.727Z,950.63
2018-07-25T10:52:24.429Z,956.25
2018-07-25T10:53:25.883Z,961.88
2018-07-25T10:54:24.434Z,978.75
2018-07-25T10:55:24.446Z,1035.00
2018-07-25T10:56:24.443Z,1147.50
2018-07-25T10:57:24.743Z,1743.75
2018-07-25T10:58:25.871Z,3189.38
2018-07-25T10:59:27.114Z,3886.88
2018-07-25T11:00:24.455Z,3864.38
2018-07-25T11:02:24.469Z,3740.63
2018-07-25T11:03:24.764Z,3870.00
2018-07-25T11:04:24.468Z,3847.50
2018-07-25T11:05:24.830Z,3780.00
2018-07-25T11:06:24.483Z,3791.25
2018-07-25T11:07:24.485Z,3853.13
2018-07-25T11:08:24.490Z,3774.38
2018-07-25T11:09:24.990Z,3690.00
2018-07-25T11:10:24.504Z,3723.75
2018-07-25T11:11:24.544Z,3723.75
2018-07-25T11:12:24.608Z,3712.50
2018-07-25T11:13:24.580Z,3673.13
2018-07-25T11:14:24.513Z,3847.50
2018-07-25T11:15:25.012Z,3746.25
2018-07-25T11:16:24.682Z,3684.38
2018-07-25T11:17:24.621Z,3633.75
2018-07-25T11:18:24.879Z,3616.88
2018-07-25T11:19:24.627Z,3493.13
2018-07-25T11:20:24.529Z,3616.88
2018-07-25T11:21:24.833Z,3301.88
2018-07-25T11:22:24.548Z,3172.50
2018-07-25T11:23:24.541Z,3560.63
2018-07-25T11:24:24.603Z,3431.25
2018-07-25T11:25:25.852Z,3375.00
2018-07-25T11:26:30.823Z,3375.00
2018-07-25T11:27:31.129Z,3470.63
2018-07-25T11:28:25.979Z,3273.75
2018-07-25T11:29:25.182Z,3206.25
2018-07-25T11:30:24.672Z,3358.13
2018-07-25T11:31:24.678Z,3346.88
2018-07-25T11:32:26.071Z,2115.00
2018-07-25T11:33:24.899Z,1299.38
2018-07-25T11:34:24.592Z,1063.13
2018-07-25T11:35:24.602Z,956.25
2018-07-25T11:36:25.063Z,922.50
2018-07-25T11:37:24.605Z,860.63
2018-07-25T11:38:24.617Z,855.00
2018-07-25T11:39:24.918Z,838.13
2018-07-25T11:40:24.623Z,826.88
2018-07-25T11:41:24.633Z,826.88
2018-07-25T11:42:24.733Z,804.38
2018-07-25T11:43:26.153Z,781.88
2018-07-25T11:44:24.902Z,781.88
2018-07-25T11:45:24.945Z,787.50
2018-07-25T11:46:24.671Z,781.88
2018-07-25T11:47:24.659Z,787.50
2018-07-25T11:48:24.666Z,793.13
2018-07-25T11:49:24.771Z,810.00
2018-07-25T11:50:24.910Z,798.75
2018-07-25T11:51:25.034Z,793.13
2018-07-25T11:52:24.685Z,821.25
2018-07-25T11:53:24.696Z,832.50
2018-07-25T11:54:24.700Z,871.88
2018-07-25T11:55:24.854Z,933.75
2018-07-25T11:56:24.812Z,950.63
2018-07-25T11:57:25.068Z,990.00
2018-07-25T11:58:24.917Z,1023.75
2018-07-25T11:59:24.730Z,1012.50
2018-07-25T12:00:25.342Z,624.38
2018-07-25T12:01:24.887Z,601.88
2018-07-25T12:02:24.846Z,928.13
2018-07-25T12:03:26.512Z,624.38
2018-07-25T12:04:24.752Z,635.63
2018-07-25T12:05:24.757Z,922.50
2018-07-25T12:06:24.768Z,585.00
2018-07-25T12:07:24.812Z,556.88
2018-07-25T12:08:24.913Z,517.50
2018-07-25T12:09:25.140Z,523.13
2018-07-25T12:10:25.040Z,534.38
2018-07-25T12:11:24.796Z,545.63
2018-07-25T12:12:24.802Z,568.13
2018-07-25T12:13:24.799Z,579.38
2018-07-25T12:14:24.803Z,573.75
2018-07-25T12:15:25.114Z,545.63
2018-07-25T12:16:25.096Z,523.13
2018-07-25T12:17:25.745Z,810.00
2018-07-25T12:18:25.431Z,663.75
2018-07-25T12:19:24.830Z,663.75
2018-07-25T12:20:27.859Z,753.75
2018-07-25T12:21:25.184Z,748.13
2018-07-25T12:22:24.949Z,731.25
2018-07-25T12:23:25.495Z,742.50
2018-07-25T12:24:27.545Z,753.75
2018-07-25T12:25:24.839Z,781.88
2018-07-25T12:26:24.852Z,793.13
2018-07-25T12:27:25.159Z,781.88
2018-07-25T12:28:24.852Z,776.25
2018-07-25T12:29:24.853Z,765.00
2018-07-25T12:30:24.912Z,748.13
2018-07-25T12:31:26.332Z,765.00
2018-07-25T12:32:24.876Z,787.50
2018-07-25T12:33:25.178Z,815.63
2018-07-25T12:35:24.889Z,871.88
2018-07-25T12:36:24.897Z,877.50
2018-07-25T12:37:24.990Z,883.13
2018-07-25T12:38:25.001Z,888.75
2018-07-25T12:39:27.653Z,883.13
2018-07-25T12:40:24.906Z,894.38
2018-07-25T12:41:24.908Z,928.13
2018-07-25T12:42:24.916Z,967.50
2018-07-25T12:43:24.929Z,1012.50
2018-07-25T12:44:24.942Z,1108.13
2018-07-25T12:45:25.040Z,1400.63
2018-07-25T12:46:25.295Z,669.38
2018-07-25T12:47:24.945Z,770.63
2018-07-25T12:48:24.998Z,3093.75
2018-07-25T12:49:24.955Z,2908.13
2018-07-25T12:50:24.962Z,2975.63
2018-07-25T12:51:25.798Z,2970.00
2018-07-25T12:52:25.291Z,2835.00
2018-07-25T12:53:24.983Z,2790.00
2018-07-25T12:54:24.992Z,2840.63
2018-07-25T12:55:24.996Z,2947.50
2018-07-25T12:56:24.998Z,2992.50
2018-07-25T12:57:25.109Z,2896.88
2018-07-25T12:58:25.360Z,2857.50
2018-07-25T12:59:25.026Z,2857.50
2018-07-25T13:00:25.031Z,2823.75
2018-07-25T13:01:25.035Z,2750.63
2018-07-25T13:02:25.037Z,2756.25
2018-07-25T13:03:25.310Z,2610.00
2018-07-25T13:04:25.348Z,2739.38
2018-07-25T13:05:25.061Z,2784.38
2018-07-25T13:06:25.061Z,2722.50
2018-07-25T13:07:25.076Z,2671.88
2018-07-25T13:08:25.081Z,2581.88
2018-07-25T13:09:25.224Z,2553.75
2018-07-25T13:10:25.216Z,2536.88
2018-07-25T13:11:25.400Z,2666.25
2018-07-25T13:12:26.525Z,2655.00
2018-07-25T13:13:25.115Z,2480.63
2018-07-25T13:14:25.116Z,2390.63
2018-07-25T13:15:25.422Z,2497.50
2018-07-25T13:16:25.239Z,2553.75
2018-07-25T13:17:25.242Z,2452.50
2018-07-25T13:18:26.560Z,2430.00
2018-07-25T13:19:25.164Z,2491.88
2018-07-25T13:20:25.156Z,2407.50
2018-07-25T13:21:25.474Z,2396.25
2018-07-25T13:22:38.051Z,2587.50
2018-07-25T13:23:25.440Z,2430.00
2018-07-25T13:24:31.555Z,1929.38
2018-07-25T13:25:25.193Z,1406.25
2018-07-25T13:26:25.409Z,1074.38
2018-07-25T13:27:25.846Z,950.63
2018-07-25T13:28:25.612Z,860.63
2018-07-25T13:29:25.324Z,804.38
2018-07-25T13:30:25.332Z,765.00
2018-07-25T13:31:25.244Z,742.50
2018-07-25T13:32:25.252Z,748.13
2018-07-25T13:33:25.552Z,736.88